createdAt,value
2023-01-01T00:01:18.368Z,8.7
2023-01-01T00:05:29.985Z,16.7
2023-01-01T00:07:35.764Z,12.3
2023-01-01T00:09:44.527Z,8.5
2023-01-01T00:11:50.319Z,8
2023-01-01T00:16:01.910Z,8.2
2023-01-01T00:18:07.710Z,10.1
2023-01-01T00:20:13.490Z,12.6
2023-01-01T00:24:28.048Z,8.3
2023-01-01T00:26:35.542Z,7.9
2023-01-01T00:28:39.605Z,6.8
2023-01-01T00:30:45.408Z,7.7
2023-01-01T00:32:55.453Z,8.7
2023-01-01T00:34:57.009Z,6.9
2023-01-01T00:37:02.780Z,8.2
2023-01-01T00:39:11.567Z,10.9
2023-01-01T00:41:17.306Z,8.4
2023-01-01T00:43:23.111Z,6.7
2023-01-01T00:44:27.498Z,8.4
2023-01-01T00:48:39.095Z,8.2
2023-01-01T00:50:44.911Z,9.1
2023-01-01T00:52:53.650Z,6
2023-01-01T00:57:05.227Z,7.9
2023-01-01T00:59:11.061Z,6.8
2023-01-01T01:01:16.878Z,6.9
2023-01-01T01:03:22.636Z,5.9
2023-01-01T01:05:28.391Z,7.1
2023-01-01T01:07:37.108Z,6.3
2023-01-01T01:09:42.919Z,7.2
2023-01-01T01:11:48.722Z,4.9
2023-01-01T01:13:54.515Z,11.9
2023-01-01T01:16:00.304Z,6.4
2023-01-01T01:18:06.110Z,4.7
2023-01-01T01:20:11.871Z,7.4
2023-01-01T01:22:27.821Z,8.4
2023-01-01T01:32:49.985Z,2.9
2023-01-01T01:39:10.357Z,4.2
2023-01-01T01:41:27.257Z,2.8
2023-01-01T01:42:20.525Z,3.3
2023-01-01T01:44:26.357Z,4.3
2023-01-01T01:46:32.183Z,9.1
2023-01-01T01:50:46.672Z,3
2023-01-01T01:59:09.855Z,2
2023-01-01T02:01:15.831Z,2.6
2023-01-01T02:03:21.484Z,3.2
2023-01-01T02:05:30.209Z,2
2023-01-01T02:07:36.003Z,2.7
2023-01-01T02:09:41.764Z,2.7
2023-01-01T02:11:47.576Z,2.7
2023-01-01T02:13:53.408Z,2.3
2023-01-01T02:15:59.238Z,2
2023-01-01T02:18:04.994Z,2.5
2023-01-01T02:22:19.547Z,1.6
2023-01-01T02:26:31.163Z,1.8
2023-01-01T02:28:36.928Z,2.9
2023-01-01T02:30:42.833Z,1.5
2023-01-01T02:32:48.603Z,1.9
2023-01-01T02:37:03.102Z,1.7
2023-01-01T02:40:13.304Z,3
2023-01-01T02:42:19.129Z,2.6
2023-01-01T02:44:24.934Z,2.8
2023-01-01T02:46:30.723Z,1.4
2023-01-01T02:50:45.275Z,2
2023-01-01T02:52:51.079Z,1.6
2023-01-01T02:57:02.654Z,2.2
2023-01-01T02:59:08.466Z,1.9
2023-01-01T03:01:14.354Z,1.6
2023-01-01T03:03:23.063Z,1.6
2023-01-01T03:05:28.797Z,1.8
2023-01-01T03:07:34.601Z,1.7
2023-01-01T03:09:40.390Z,1.5
2023-01-01T03:11:46.194Z,2.3
2023-01-01T03:13:51.987Z,2.6
2023-01-01T03:15:57.906Z,2.2
2023-01-01T03:18:06.542Z,1.6
2023-01-01T03:20:12.337Z,1.6
2023-01-01T03:22:18.164Z,1.3
2023-01-01T03:24:23.949Z,1.3
2023-01-01T03:30:42.912Z,1.3
2023-01-01T03:32:51.652Z,1.3
2023-01-01T03:34:57.457Z,1.7
2023-01-01T03:37:03.240Z,1.2
2023-01-01T03:39:34.563Z,2.5
2023-01-01T03:41:40.339Z,1.6
2023-01-01T03:45:54.883Z,1.6
2023-01-01T03:50:06.490Z,2.2
2023-01-01T03:52:12.304Z,1.7
2023-01-01T03:54:18.091Z,2
2023-01-01T03:56:23.892Z,1
2023-01-01T03:58:29.694Z,1.8
2023-01-01T04:00:38.448Z,1.1
2023-01-01T04:02:44.325Z,1.4
2023-01-01T04:04:50.044Z,1.5
2023-01-01T04:06:55.874Z,2.3
2023-01-01T04:09:01.666Z,1.8
2023-01-01T04:11:07.468Z,1.6
2023-01-01T04:13:13.236Z,2
2023-01-01T04:15:22.040Z,1.6
2023-01-01T04:17:27.831Z,1.7
2023-01-01T04:19:33.593Z,0.9
2023-01-01T04:21:39.399Z,1.8
2023-01-01T04:23:45.178Z,2.3
2023-01-01T04:25:51.001Z,1.9
2023-01-01T04:27:56.769Z,1.6
2023-01-01T04:30:05.517Z,1.7
2023-01-01T04:32:11.328Z,2
2023-01-01T04:34:17.144Z,2.1
2023-01-01T04:35:21.511Z,1.8
2023-01-01T04:37:27.312Z,1.4
2023-01-01T04:39:33.103Z,2.2
2023-01-01T04:41:38.885Z,1.9
2023-01-01T04:43:47.668Z,2.5
2023-01-01T04:45:53.531Z,1.6
2023-01-01T04:47:59.265Z,1.4
2023-01-01T04:52:10.861Z,2.2
2023-01-01T04:54:16.665Z,0.8
2023-01-01T04:56:22.464Z,1.6
2023-01-01T04:58:31.203Z,1.3
2023-01-01T05:00:37.070Z,2.2
2023-01-01T05:02:43.095Z,2.1
2023-01-01T05:04:48.612Z,1.7
2023-01-01T05:06:54.384Z,2.4
2023-01-01T05:09:00.197Z,2.4
2023-01-01T05:11:05.984Z,2.4
2023-01-01T05:13:14.763Z,2.5
2023-01-01T05:15:20.553Z,1.5
2023-01-01T05:17:26.313Z,2.2
2023-01-01T05:19:32.163Z,1.6
2023-01-01T05:21:37.932Z,1.7
2023-01-01T05:23:43.711Z,2.4
2023-01-01T05:25:49.492Z,1.4
2023-01-01T05:27:58.240Z,2.1
2023-01-01T05:30:04.040Z,1.9
2023-01-01T05:33:14.218Z,2.4
2023-01-01T05:35:24.559Z,2.3
2023-01-01T05:37:25.791Z,1.3
2023-01-01T05:39:31.558Z,2.4
2023-01-01T05:41:40.307Z,2.3
2023-01-01T05:43:46.093Z,1.2
2023-01-01T05:45:51.930Z,1.5
2023-01-01T05:47:57.640Z,1.3
2023-01-01T05:52:09.242Z,1.6
2023-01-01T05:56:23.760Z,1.3
2023-01-01T06:00:35.320Z,0.9
2023-01-01T06:02:41.183Z,1.6
2023-01-01T06:04:46.960Z,1.7
2023-01-01T06:06:52.698Z,1.6
2023-01-01T06:08:58.484Z,1.3
2023-01-01T06:11:07.205Z,1.5
2023-01-01T06:13:13.506Z,1.5
2023-01-01T06:15:18.772Z,0.8
2023-01-01T06:17:24.553Z,1
2023-01-01T06:21:36.140Z,0.9
2023-01-01T06:25:50.654Z,1
2023-01-01T06:27:56.467Z,1.1
2023-01-01T06:30:02.257Z,2
2023-01-01T06:33:12.423Z,0.9
2023-01-01T06:35:18.219Z,0.6
2023-01-01T06:37:24.010Z,0.6
2023-01-01T06:39:32.774Z,1
2023-01-01T06:41:38.557Z,0.7
2023-01-01T06:43:44.398Z,1.5
2023-01-01T06:45:50.252Z,0.9
2023-01-01T06:47:56.011Z,1.6
2023-01-01T06:52:07.535Z,0.8
2023-01-01T06:54:16.312Z,0.4
2023-01-01T06:56:22.092Z,0.5
2023-01-01T06:58:27.861Z,1.1
2023-01-01T07:00:33.638Z,0.8
2023-01-01T07:02:39.732Z,0.9
2023-01-01T07:04:45.253Z,2.8
2023-01-01T07:06:51.038Z,1.5
2023-01-01T07:08:59.795Z,0.6
2023-01-01T07:11:05.637Z,1.3
2023-01-01T07:17:22.966Z,1
2023-01-01T07:19:28.732Z,0.5
2023-01-01T07:21:34.552Z,0.6
2023-01-01T07:23:43.281Z,0.5
2023-01-01T07:25:49.072Z,1.2
2023-01-01T07:27:54.845Z,1.9
2023-01-01T07:30:26.186Z,0.7
2023-01-01T07:32:31.955Z,0.8
2023-01-01T07:34:37.736Z,0.6
2023-01-01T07:36:46.477Z,1
2023-01-01T07:38:52.281Z,1
2023-01-01T07:43:03.826Z,0.5
2023-01-01T07:47:15.397Z,1.4
2023-01-01T07:51:29.937Z,1
2023-01-01T07:57:47.299Z,0.3
2023-01-01T07:59:53.117Z,0.9
2023-01-01T08:01:59.001Z,0.9
2023-01-01T08:04:04.644Z,0.9
2023-01-01T08:06:13.477Z,1
2023-01-01T08:08:19.174Z,0.9
2023-01-01T08:10:24.993Z,1.2
2023-01-01T08:12:30.734Z,1
2023-01-01T08:14:36.509Z,1
2023-01-01T08:20:56.812Z,0.9
2023-01-01T08:26:12.745Z,1.2
2023-01-01T08:28:18.523Z,0.3
2023-01-01T08:30:24.309Z,1.3
2023-01-01T08:32:30.088Z,1.7
2023-01-01T08:34:38.797Z,0.7
2023-01-01T08:36:44.564Z,0.6
2023-01-01T08:38:50.356Z,1.5
2023-01-01T08:40:56.112Z,2.3
2023-01-01T08:43:01.899Z,0.8
2023-01-01T08:45:07.667Z,0.9
2023-01-01T08:47:13.457Z,0.9
2023-01-01T08:53:33.734Z,0.7
2023-01-01T08:55:39.508Z,0.8
2023-01-01T08:57:45.266Z,0.6
2023-01-01T08:59:51.038Z,1.5
2023-01-01T09:01:56.977Z,0.8
2023-01-01T09:04:08.023Z,0.8
2023-01-01T09:08:17.108Z,0.8
2023-01-01T09:10:22.904Z,1.1
2023-01-01T09:12:28.676Z,1.5
2023-01-01T09:14:34.460Z,0.9
2023-01-01T09:16:44.232Z,0.4
2023-01-01T09:18:48.947Z,1
2023-01-01T09:20:54.722Z,0.7
2023-01-01T09:23:05.597Z,1.9
2023-01-01T09:24:05.159Z,1
2023-01-01T09:28:21.806Z,1.5
2023-01-01T09:32:32.760Z,1.1
2023-01-01T09:34:38.527Z,0.7
2023-01-01T09:40:55.845Z,1
2023-01-01T09:43:01.606Z,1
2023-01-01T09:45:07.380Z,1.4
2023-01-01T09:47:16.128Z,1
2023-01-01T09:51:27.652Z,1.2
2023-01-01T09:53:33.423Z,1.2
2023-01-01T09:55:39.196Z,1.7
2023-01-01T09:57:44.979Z,1.4
2023-01-01T10:01:59.714Z,1.1
2023-01-01T10:04:05.275Z,0.9
2023-01-01T10:08:22.848Z,2
2023-01-01T10:12:28.384Z,1.1
2023-01-01T10:18:48.667Z,1.2
2023-01-01T10:21:58.804Z,1.6
2023-01-01T10:24:04.568Z,1.5
2023-01-01T10:28:16.138Z,1.2
2023-01-01T10:30:24.889Z,0.6
2023-01-01T10:32:30.667Z,0.9
2023-01-01T10:34:36.427Z,1.6
2023-01-01T10:36:42.217Z,1
2023-01-01T10:38:47.997Z,1
2023-01-01T10:40:53.764Z,1.7
2023-01-01T10:42:59.596Z,1.6
2023-01-01T10:45:08.311Z,1.2
2023-01-01T10:47:14.068Z,1.1
2023-01-01T10:51:25.629Z,2.1
2023-01-01T10:53:31.455Z,0.5
2023-01-01T10:57:43.013Z,1
2023-01-01T10:59:54.477Z,2.1
2023-01-01T11:01:57.684Z,1.2
2023-01-01T11:08:14.899Z,1.4
2023-01-01T11:10:20.718Z,1.4
2023-01-01T11:13:02.810Z,0.8
2023-01-01T11:14:35.205Z,2.7
2023-01-01T11:16:41.029Z,1.3
2023-01-01T11:18:46.748Z,0.8
2023-01-01T11:23:12.584Z,1.6
2023-01-01T11:27:27.116Z,0.8
2023-01-01T11:35:50.233Z,1.6
2023-01-01T11:37:55.986Z,1.3
2023-01-01T11:40:01.820Z,1.9
2023-01-01T11:42:10.516Z,1.6
2023-01-01T11:44:16.317Z,3.5
2023-01-01T11:46:22.161Z,2
2023-01-01T11:48:27.872Z,1.7
2023-01-01T11:50:33.658Z,2
2023-01-01T11:52:39.434Z,2.4
2023-01-01T11:54:45.235Z,1.5
2023-01-01T11:56:53.988Z,1.3
2023-01-01T11:58:59.762Z,1.4
2023-01-01T12:01:05.561Z,1.9
2023-01-01T12:03:11.305Z,1.6
2023-01-01T12:05:17.095Z,2.1
2023-01-01T12:07:22.883Z,1.3
2023-01-01T12:11:37.410Z,2.1
2023-01-01T12:15:49.023Z,2.8
2023-01-01T12:16:53.347Z,3.1
2023-01-01T12:21:04.931Z,2.1
2023-01-01T12:23:10.724Z,1
2023-01-01T12:27:25.244Z,1.7
2023-01-01T12:29:31.032Z,1.7
2023-01-01T12:31:36.897Z,2.2
2023-01-01T12:33:42.613Z,2
2023-01-01T12:35:48.404Z,2.7
2023-01-01T12:37:54.167Z,2.3
2023-01-01T12:40:03.774Z,1.3
2023-01-01T12:42:08.719Z,1.2
2023-01-01T12:44:14.503Z,5.8
2023-01-01T12:46:20.377Z,2
2023-01-01T12:48:26.091Z,1.7
2023-01-01T12:50:31.926Z,2
2023-01-01T12:52:37.653Z,2.3
2023-01-01T12:54:46.412Z,3.7
2023-01-01T12:56:52.197Z,1.9
2023-01-01T12:58:57.988Z,2
2023-01-01T13:01:03.843Z,3.4
2023-01-01T13:05:15.350Z,5.6
2023-01-01T13:07:21.166Z,2.8
2023-01-01T13:11:41.282Z,1.8
2023-01-01T13:14:45.896Z,1.9
2023-01-01T13:16:51.663Z,2
2023-01-01T13:21:03.245Z,2.1
2023-01-01T13:23:11.993Z,2.9
2023-01-01T13:25:17.794Z,3.2
2023-01-01T13:27:23.600Z,2.3
2023-01-01T13:29:29.381Z,2
2023-01-01T13:31:35.192Z,3.7
2023-01-01T13:33:40.969Z,3.1
2023-01-01T13:35:46.768Z,2.7
2023-01-01T13:37:55.518Z,2
2023-01-01T13:40:01.304Z,1.1
2023-01-01T13:44:12.869Z,2.1
2023-01-01T13:48:24.456Z,3
2023-01-01T13:50:30.237Z,6
2023-01-01T13:52:39.017Z,2.3
2023-01-01T13:54:44.793Z,2.1
2023-01-01T13:56:50.568Z,2.8
2023-01-01T13:58:56.385Z,2.1
2023-01-01T14:01:02.303Z,1.9
2023-01-01T14:03:08.007Z,2.3
2023-01-01T14:05:13.734Z,2.5
2023-01-01T14:09:28.275Z,2.2
2023-01-01T14:11:34.044Z,1.6
2023-01-01T14:14:44.211Z,1.8
2023-01-01T14:18:55.762Z,2.5
2023-01-01T14:21:04.524Z,5.9
2023-01-01T14:23:10.294Z,2.7
2023-01-01T14:25:16.091Z,2.2
2023-01-01T14:27:21.893Z,2.1
2023-01-01T14:29:27.653Z,3
2023-01-01T14:31:33.490Z,2.1
2023-01-01T14:33:39.205Z,1.7
2023-01-01T14:35:47.955Z,3.3
2023-01-01T14:37:53.738Z,1.9
2023-01-01T14:39:59.495Z,3.5
2023-01-01T14:42:05.273Z,2.8
2023-01-01T14:44:11.069Z,3.8
2023-01-01T14:48:22.646Z,2.8
2023-01-01T14:50:31.364Z,2.7
2023-01-01T14:52:37.162Z,1.9
2023-01-01T14:54:42.933Z,4.1
2023-01-01T14:56:48.716Z,2.2
2023-01-01T14:58:54.507Z,3.3
2023-01-01T15:01:00.433Z,3.3
2023-01-01T15:03:06.115Z,2
2023-01-01T15:05:14.809Z,2.6
2023-01-01T15:07:20.605Z,5
2023-01-01T15:09:26.414Z,3.9
2023-01-01T15:11:55.487Z,6.8
2023-01-01T15:14:01.421Z,4.9
2023-01-01T15:18:15.810Z,3.3
2023-01-01T15:20:21.584Z,3
2023-01-01T15:22:27.375Z,3.8
2023-01-01T15:24:33.137Z,1.9
2023-01-01T15:26:38.898Z,6
2023-01-01T15:28:44.674Z,3
2023-01-01T15:30:50.476Z,4.3
2023-01-01T15:33:00.813Z,4.1
2023-01-01T15:35:06.573Z,2.8
2023-01-01T15:37:12.341Z,2.6
2023-01-01T15:39:18.143Z,2.7
2023-01-01T15:41:23.927Z,2.8
2023-01-01T15:43:29.673Z,3
2023-01-01T15:45:35.583Z,3.8
2023-01-01T15:47:44.197Z,5.8
2023-01-01T15:51:55.754Z,4.5
2023-01-01T15:54:01.542Z,4.9
2023-01-01T15:56:07.301Z,4.2
2023-01-01T15:58:13.092Z,3.9
2023-01-01T16:00:18.870Z,3.1
2023-01-01T16:02:27.909Z,4.1
2023-01-01T16:04:33.389Z,5.5
2023-01-01T16:06:39.134Z,4.7
2023-01-01T16:07:43.508Z,4.3
2023-01-01T16:09:54.988Z,6.6
2023-01-01T16:11:55.079Z,3.3
2023-01-01T16:14:00.825Z,2.8
2023-01-01T16:18:15.359Z,3.1
2023-01-01T16:20:21.132Z,2.9
2023-01-01T16:22:30.592Z,3.4
2023-01-01T16:24:32.707Z,3.2
2023-01-01T16:26:38.482Z,4.6
2023-01-01T16:30:53.108Z,3.8
2023-01-01T16:32:58.809Z,4.2
2023-01-01T16:35:11.382Z,3.9
2023-01-01T16:37:10.379Z,3.2
2023-01-01T16:39:16.187Z,3.3
2023-01-01T16:41:21.931Z,4.2
2023-01-01T16:43:27.763Z,3.6
2023-01-01T16:45:36.482Z,5.9
2023-01-01T16:47:42.231Z,5.4
2023-01-01T16:49:48.022Z,4.3
2023-01-01T16:51:53.768Z,4.2
2023-01-01T16:53:59.564Z,4.4
2023-01-01T16:56:05.378Z,5.3
2023-01-01T16:58:38.662Z,3.6
2023-01-01T17:00:19.890Z,3.9
2023-01-01T17:04:31.442Z,4.4
2023-01-01T17:05:40.490Z,6.1
2023-01-01T17:07:41.599Z,4.9
2023-01-01T17:09:47.370Z,4.4
2023-01-01T17:11:53.142Z,5.6
2023-01-01T17:14:01.884Z,4.8
2023-01-01T17:16:07.690Z,6.4
2023-01-01T17:18:13.453Z,7.4
2023-01-01T17:20:19.237Z,7
2023-01-01T17:24:30.764Z,4.6
2023-01-01T17:26:36.566Z,4.5
2023-01-01T17:28:45.274Z,4.4
2023-01-01T17:30:51.111Z,5.8
2023-01-01T17:32:56.823Z,5.6
2023-01-01T17:35:02.611Z,5.2
2023-01-01T17:37:08.342Z,3
2023-01-01T17:45:34.414Z,3.4
2023-01-01T17:47:40.221Z,3
2023-01-01T17:49:45.957Z,2.5
2023-01-01T17:51:51.752Z,3.6
2023-01-01T17:53:57.544Z,3.6
2023-01-01T17:56:03.298Z,3.4
2023-01-01T17:58:12.017Z,3.3
2023-01-01T18:02:23.737Z,4.6
2023-01-01T18:03:28.030Z,4.4
2023-01-01T18:05:33.716Z,5.4
2023-01-01T18:07:39.483Z,4
2023-01-01T18:09:45.249Z,3.6
2023-01-01T18:11:54.018Z,5.6
2023-01-01T18:13:59.789Z,4.6
2023-01-01T18:16:05.636Z,3.8
2023-01-01T18:18:11.325Z,4.2
2023-01-01T18:20:17.078Z,4.6
2023-01-01T18:22:22.882Z,5
2023-01-01T18:24:28.630Z,4.3
2023-01-01T18:28:43.166Z,5.8
2023-01-01T18:30:48.970Z,6.9
2023-01-01T18:32:54.703Z,5.3
2023-01-01T18:35:00.483Z,4.7
2023-01-01T18:37:06.281Z,6.3
2023-01-01T18:39:12.004Z,8.5
2023-01-01T18:41:20.755Z,6.2
2023-01-01T18:43:26.541Z,7.2
2023-01-01T18:45:32.298Z,7.1
2023-01-01T18:47:38.038Z,7.3
2023-01-01T18:49:43.794Z,6.9
2023-01-01T18:51:49.581Z,5.7
2023-01-01T18:53:55.388Z,7.2
2023-01-01T18:56:04.120Z,4.9
2023-01-01T18:58:09.858Z,7.6
2023-01-01T19:00:15.629Z,3.6
2023-01-01T19:04:52.696Z,4.8
2023-01-01T19:06:52.421Z,5.6
2023-01-01T19:09:01.161Z,4.6
2023-01-01T19:11:06.934Z,3.8
2023-01-01T19:17:24.226Z,3.5
2023-01-01T19:21:35.751Z,3.9
2023-01-01T19:25:50.261Z,3.6
2023-01-01T19:27:56.032Z,3.7
2023-01-01T19:30:01.770Z,4.1
2023-01-01T19:32:07.519Z,3.5
2023-01-01T19:34:13.291Z,3.7
2023-01-01T19:36:19.053Z,3.5
2023-01-01T19:38:27.753Z,4.4
2023-01-01T19:40:33.526Z,4
2023-01-01T19:42:39.292Z,3.3
2023-01-01T19:44:45.031Z,4.6
2023-01-01T19:46:50.891Z,3.4
2023-01-01T19:51:02.324Z,4.8
2023-01-01T19:53:11.035Z,4.7
2023-01-01T19:55:16.785Z,3.6
2023-01-01T19:57:22.541Z,4.3
2023-01-01T19:58:26.917Z,3.2
2023-01-01T20:00:32.770Z,4.3
2023-01-01T20:02:47.054Z,4.6
2023-01-01T20:04:44.332Z,3.9
2023-01-01T20:06:52.954Z,4.3
2023-01-01T20:11:04.446Z,3.4
2023-01-01T20:13:10.283Z,3.3
2023-01-01T20:15:15.957Z,3.7
2023-01-01T20:17:21.715Z,4.5
2023-01-01T20:19:27.506Z,5.1
2023-01-01T20:21:36.209Z,4.5
2023-01-01T20:23:41.971Z,3.6
2023-01-01T20:25:47.753Z,4
2023-01-01T20:27:54.890Z,2.8
2023-01-01T20:29:59.241Z,3.5
2023-01-01T20:32:05.060Z,4.6
2023-01-01T20:34:10.740Z,5.9
2023-01-01T20:38:25.247Z,3.2
2023-01-01T20:40:30.996Z,3.4
2023-01-01T20:42:36.763Z,3.9
2023-01-01T20:44:42.498Z,3.6
2023-01-01T20:46:48.386Z,3.5
2023-01-01T20:48:54.025Z,3.7
2023-01-01T20:51:02.800Z,5.4
2023-01-01T20:53:08.521Z,3.8
2023-01-01T20:55:14.279Z,4.2
2023-01-01T20:56:18.626Z,3.5
2023-01-01T20:58:24.409Z,4.5
2023-01-01T21:00:30.168Z,3.9
2023-01-01T21:02:36.057Z,4.1
2023-01-01T21:04:44.650Z,2.9
2023-01-01T21:06:50.427Z,3.3
2023-01-01T21:08:56.197Z,2.6
2023-01-01T21:11:02.360Z,2.6
2023-01-01T21:13:08.116Z,2.9
2023-01-01T21:15:13.890Z,3.2
2023-01-01T21:17:19.625Z,3.8
2023-01-01T21:19:28.366Z,2.7
2023-01-01T21:21:34.129Z,2.8
2023-01-01T21:23:39.867Z,3.7
2023-01-01T21:25:52.188Z,2.7
2023-01-01T21:27:51.390Z,3.8
2023-01-01T21:29:57.190Z,3.8
2023-01-01T21:32:06.948Z,3.3
2023-01-01T21:34:13.265Z,4.2
2023-01-01T21:36:18.988Z,4.3
2023-01-01T21:38:24.743Z,3
2023-01-01T21:40:30.507Z,2.8
2023-01-01T21:42:36.279Z,2.5
2023-01-01T21:44:42.027Z,2.7
2023-01-01T21:46:47.806Z,3.2
2023-01-01T21:48:56.532Z,3.1
2023-01-01T21:51:02.288Z,3.6
2023-01-01T21:53:08.052Z,3.1
2023-01-01T22:00:29.692Z,3.7
2023-01-01T22:02:38.818Z,3.8
2023-01-01T22:04:44.212Z,3.4
2023-01-01T22:06:49.929Z,3.6
2023-01-01T22:08:55.706Z,3.1
2023-01-01T22:11:01.468Z,4.3
2023-01-01T22:13:07.218Z,4.6
2023-01-01T22:15:12.985Z,3.5
2023-01-01T22:17:21.704Z,6
2023-01-01T22:19:27.471Z,4.8
2023-01-01T22:21:33.240Z,4
2023-01-01T22:23:38.998Z,4.6
2023-01-01T22:25:44.729Z,3.3
2023-01-01T22:27:50.499Z,4.7
2023-01-01T22:29:56.260Z,4.6
2023-01-01T22:32:05.007Z,4.8
2023-01-01T22:34:10.770Z,4.5
2023-01-01T22:36:16.511Z,3.2
2023-01-01T22:38:22.298Z,3.3
2023-01-01T22:40:28.027Z,4.1
2023-01-01T22:42:33.803Z,5.1
2023-01-01T22:44:39.540Z,4.4
2023-01-01T22:46:48.282Z,4.2
2023-01-01T22:48:57.965Z,4.9
2023-01-01T22:50:59.796Z,3.2
2023-01-01T22:55:31.153Z,4.6
2023-01-01T22:57:36.895Z,4.2
2023-01-01T22:59:45.667Z,6.4
2023-01-01T23:01:51.499Z,5.7
2023-01-01T23:03:57.195Z,6.7
2023-01-01T23:06:02.943Z,4.3
2023-01-01T23:08:08.678Z,4
2023-01-01T23:18:40.464Z,5.7
2023-01-01T23:20:46.208Z,5.4
2023-01-01T23:22:51.978Z,4.2
2023-01-01T23:24:57.708Z,4.5
2023-01-01T23:27:03.481Z,4.9
2023-01-01T23:29:12.254Z,6.1
2023-01-01T23:35:29.505Z,5.1
2023-01-01T23:37:35.298Z,5
2023-01-01T23:39:41.035Z,4.7
2023-01-01T23:41:46.777Z,5.2
2023-01-01T23:43:55.541Z,5.7
2023-01-01T23:46:01.320Z,4.8
2023-01-01T23:48:07.043Z,5.8
2023-01-01T23:51:17.155Z,5.6
2023-01-01T23:53:22.920Z,5
2023-01-01T23:55:28.686Z,4.6
2023-01-01T23:57:37.396Z,5.1
2023-01-01T23:59:43.155Z,5
